sensor_id;sensor_type;location;lat;lon;timestamp;P1;durP1;ratioP1;P2;durP2;ratioP2
59099;SDS011;44884;52.730;6.964;2024-03-23T00:54:18;9.00;;;3.30;;
59099;SDS011;44884;52.730;6.964;2024-03-23T00:56:44;6.95;;;3.97;;
59099;SDS011;44884;52.730;6.964;2024-03-23T00:59:10;3.78;;;3.13;;
59099;SDS011;44884;52.730;6.964;2024-03-23T01:01:36;5.75;;;3.33;;
59099;SDS011;44884;52.730;6.964;2024-03-23T01:04:02;9.32;;;3.58;;
59099;SDS011;44884;52.730;6.964;2024-03-23T01:06:28;5.38;;;3.22;;
59099;SDS011;44884;52.730;6.964;2024-03-23T01:08:54;6.10;;;3.22;;
59099;SDS011;44884;52.730;6.964;2024-03-23T01:11:20;6.22;;;3.20;;
59099;SDS011;44884;52.730;6.964;2024-03-23T01:13:46;5.07;;;3.50;;
59099;SDS011;44884;52.730;6.964;2024-03-23T01:16:12;5.32;;;3.58;;
59099;SDS011;44884;52.730;6.964;2024-03-23T01:18:38;6.95;;;3.60;;
59099;SDS011;44884;52.730;6.964;2024-03-23T01:21:04;8.20;;;3.78;;
59099;SDS011;44884;52.730;6.964;2024-03-23T01:23:30;11.65;;;3.72;;
59099;SDS011;44884;52.730;6.964;2024-03-23T01:25:56;5.53;;;3.55;;
59099;SDS011;44884;52.730;6.964;2024-03-23T01:28:22;8.60;;;3.33;;
59099;SDS011;44884;52.730;6.964;2024-03-23T01:30:48;6.03;;;2.97;;
59099;SDS011;44884;52.730;6.964;2024-03-23T01:33:15;9.07;;;3.75;;
59099;SDS011;44884;52.730;6.964;2024-03-23T01:35:41;5.95;;;3.50;;
59099;SDS011;44884;52.730;6.964;2024-03-23T01:38:07;5.97;;;3.33;;
59099;SDS011;44884;52.730;6.964;2024-03-23T01:40:33;4.32;;;2.88;;
59099;SDS011;44884;52.730;6.964;2024-03-23T01:43:03;7.00;;;3.67;;
59099;SDS011;44884;52.730;6.964;2024-03-23T01:45:29;5.93;;;2.80;;
59099;SDS011;44884;52.730;6.964;2024-03-23T01:47:55;6.05;;;3.78;;
59099;SDS011;44884;52.730;6.964;2024-03-23T01:50:21;5.60;;;3.25;;
59099;SDS011;44884;52.730;6.964;2024-03-23T01:52:48;7.85;;;3.75;;
59099;SDS011;44884;52.730;6.964;2024-03-23T01:55:15;7.40;;;3.78;;
59099;SDS011;44884;52.730;6.964;2024-03-23T01:57:41;6.75;;;3.55;;
59099;SDS011;44884;52.730;6.964;2024-03-23T02:00:07;6.57;;;3.65;;
59099;SDS011;44884;52.730;6.964;2024-03-23T02:02:34;5.75;;;3.65;;
59099;SDS011;44884;52.730;6.964;2024-03-23T02:05:00;6.30;;;3.10;;
59099;SDS011;44884;52.730;6.964;2024-03-23T02:07:26;7.90;;;3.60;;
59099;SDS011;44884;52.730;6.964;2024-03-23T02:09:52;5.20;;;3.50;;
59099;SDS011;44884;52.730;6.964;2024-03-23T02:12:19;9.90;;;4.30;;
59099;SDS011;44884;52.730;6.964;2024-03-23T02:14:46;5.75;;;3.10;;
59099;SDS011;44884;52.730;6.964;2024-03-23T02:17:12;7.30;;;3.60;;
59099;SDS011;44884;52.730;6.964;2024-03-23T02:19:38;5.47;;;2.97;;
59099;SDS011;44884;52.730;6.964;2024-03-23T02:22:04;6.13;;;3.72;;
59099;SDS011;44884;52.730;6.964;2024-03-23T02:24:30;9.15;;;3.45;;
59099;SDS011;44884;52.730;6.964;2024-03-23T02:26:56;3.47;;;2.90;;
59099;SDS011;44884;52.730;6.964;2024-03-23T02:29:22;9.90;;;4.32;;
59099;SDS011;44884;52.730;6.964;2024-03-23T02:31:48;4.22;;;3.20;;
59099;SDS011;44884;52.730;6.964;2024-03-23T02:34:14;10.40;;;3.22;;
59099;SDS011;44884;52.730;6.964;2024-03-23T02:36:40;5.80;;;2.90;;
59099;SDS011;44884;52.730;6.964;2024-03-23T02:39:06;5.43;;;3.30;;
59099;SDS011;44884;52.730;6.964;2024-03-23T02:41:33;7.95;;;2.92;;
59099;SDS011;44884;52.730;6.964;2024-03-23T02:43:59;4.97;;;3.20;;
59099;SDS011;44884;52.730;6.964;2024-03-23T02:46:25;7.45;;;3.47;;
59099;SDS011;44884;52.730;6.964;2024-03-23T02:48:51;10.52;;;3.83;;
59099;SDS011;44884;52.730;6.964;2024-03-23T02:51:17;6.63;;;3.70;;
59099;SDS011;44884;52.730;6.964;2024-03-23T02:53:43;8.63;;;3.30;;
59099;SDS011;44884;52.730;6.964;2024-03-23T02:56:09;5.00;;;3.72;;
59099;SDS011;44884;52.730;6.964;2024-03-23T02:58:40;9.15;;;4.00;;
59099;SDS011;44884;52.730;6.964;2024-03-23T03:01:06;5.93;;;3.55;;
59099;SDS011;44884;52.730;6.964;2024-03-23T03:03:32;5.78;;;3.10;;
59099;SDS011;44884;52.730;6.964;2024-03-23T03:05:58;7.75;;;3.95;;
59099;SDS011;44884;52.730;6.964;2024-03-23T03:08:24;10.27;;;3.78;;
59099;SDS011;44884;52.730;6.964;2024-03-23T03:10:50;6.93;;;3.47;;
59099;SDS011;44884;52.730;6.964;2024-03-23T03:13:16;6.75;;;3.35;;
59099;SDS011;44884;52.730;6.964;2024-03-23T03:15:43;5.82;;;3.33;;
59099;SDS011;44884;52.730;6.964;2024-03-23T03:18:09;4.97;;;3.40;;
59099;SDS011;44884;52.730;6.964;2024-03-23T03:20:38;5.97;;;3.17;;
59099;SDS011;44884;52.730;6.964;2024-03-23T03:23:05;6.53;;;3.92;;
59099;SDS011;44884;52.730;6.964;2024-03-23T03:25:31;5.82;;;2.85;;
59099;SDS011;44884;52.730;6.964;2024-03-23T03:27:57;5.82;;;3.58;;
59099;SDS011;44884;52.730;6.964;2024-03-23T03:30:24;11.85;;;3.95;;
59099;SDS011;44884;52.730;6.964;2024-03-23T03:32:51;4.50;;;3.33;;
59099;SDS011;44884;52.730;6.964;2024-03-23T03:35:17;5.57;;;3.22;;
59099;SDS011;44884;52.730;6.964;2024-03-23T03:37:43;5.55;;;3.92;;
59099;SDS011;44884;52.730;6.964;2024-03-23T03:40:10;8.85;;;3.45;;
59099;SDS011;44884;52.730;6.964;2024-03-23T03:42:36;3.88;;;3.05;;
59099;SDS011;44884;52.730;6.964;2024-03-23T03:45:02;11.25;;;3.60;;
59099;SDS011;44884;52.730;6.964;2024-03-23T03:47:29;5.72;;;3.40;;
59099;SDS011;44884;52.730;6.964;2024-03-23T03:49:55;19.40;;;3.53;;
59099;SDS011;44884;52.730;6.964;2024-03-23T03:52:21;5.70;;;3.35;;
59099;SDS011;44884;52.730;6.964;2024-03-23T03:54:47;8.77;;;3.13;;
59099;SDS011;44884;52.730;6.964;2024-03-23T03:57:13;8.15;;;3.60;;
59099;SDS011;44884;52.730;6.964;2024-03-23T03:59:39;4.68;;;2.80;;
59099;SDS011;44884;52.730;6.964;2024-03-23T04:02:05;8.93;;;3.92;;
59099;SDS011;44884;52.730;6.964;2024-03-23T04:04:31;7.72;;;3.30;;
59099;SDS011;44884;52.730;6.964;2024-03-23T04:06:58;3.88;;;3.00;;
59099;SDS011;44884;52.730;6.964;2024-03-23T04:09:24;5.43;;;3.58;;
59099;SDS011;44884;52.730;6.964;2024-03-23T04:11:50;5.28;;;2.88;;
59099;SDS011;44884;52.730;6.964;2024-03-23T04:14:16;6.65;;;2.75;;
59099;SDS011;44884;52.730;6.964;2024-03-23T04:16:42;6.88;;;3.85;;
59099;SDS011;44884;52.730;6.964;2024-03-23T04:19:08;8.77;;;3.10;;
59099;SDS011;44884;52.730;6.964;2024-03-23T04:21:34;8.85;;;3.20;;
59099;SDS011;44884;52.730;6.964;2024-03-23T04:24:00;8.65;;;3.80;;
59099;SDS011;44884;52.730;6.964;2024-03-23T04:26:26;6.28;;;4.05;;
59099;SDS011;44884;52.730;6.964;2024-03-23T04:28:53;8.35;;;3.70;;
59099;SDS011;44884;52.730;6.964;2024-03-23T04:31:19;6.60;;;3.10;;
59099;SDS011;44884;52.730;6.964;2024-03-23T04:33:45;6.72;;;3.25;;
59099;SDS011;44884;52.730;6.964;2024-03-23T04:36:11;5.07;;;3.72;;
59099;SDS011;44884;52.730;6.964;2024-03-23T04:38:37;7.07;;;3.70;;
59099;SDS011;44884;52.730;6.964;2024-03-23T04:41:03;4.85;;;2.97;;
59099;SDS011;44884;52.730;6.964;2024-03-23T04:43:29;7.32;;;4.18;;
59099;SDS011;44884;52.730;6.964;2024-03-23T04:45:55;7.07;;;3.75;;
59099;SDS011;44884;52.730;6.964;2024-03-23T04:48:22;6.78;;;3.70;;
59099;SDS011;44884;52.730;6.964;2024-03-23T04:50:54;5.80;;;3.50;;
59099;SDS011;44884;52.730;6.964;2024-03-23T04:53:20;5.95;;;3.28;;
59099;SDS011;44884;52.730;6.964;2024-03-23T04:55:48;5.07;;;3.47;;
59099;SDS011;44884;52.730;6.964;2024-03-23T04:58:14;4.53;;;3.25;;
59099;SDS011;44884;52.730;6.964;2024-03-23T05:00:40;8.10;;;3.92;;
59099;SDS011;44884;52.730;6.964;2024-03-23T05:03:06;4.28;;;2.80;;
59099;SDS011;44884;52.730;6.964;2024-03-23T05:05:32;5.22;;;3.20;;
59099;SDS011;44884;52.730;6.964;2024-03-23T05:07:58;5.10;;;3.50;;
59099;SDS011;44884;52.730;6.964;2024-03-23T05:10:24;7.18;;;3.28;;
59099;SDS011;44884;52.730;6.964;2024-03-23T05:12:50;5.00;;;2.97;;
59099;SDS011;44884;52.730;6.964;2024-03-23T05:15:16;9.50;;;3.58;;
59099;SDS011;44884;52.730;6.964;2024-03-23T05:17:43;5.07;;;3.05;;
59099;SDS011;44884;52.730;6.964;2024-03-23T05:20:09;4.20;;;3.10;;
59099;SDS011;44884;52.730;6.964;2024-03-23T05:22:37;6.95;;;3.85;;
59099;SDS011;44884;52.730;6.964;2024-03-23T05:25:03;10.40;;;3.50;;
59099;SDS011;44884;52.730;6.964;2024-03-23T05:27:31;5.88;;;3.55;;
59099;SDS011;44884;52.730;6.964;2024-03-23T05:29:57;9.65;;;4.18;;
59099;SDS011;44884;52.730;6.964;2024-03-23T05:32:23;9.02;;;3.60;;
59099;SDS011;44884;52.730;6.964;2024-03-23T05:34:49;7.85;;;3.47;;
59099;SDS011;44884;52.730;6.964;2024-03-23T05:37:20;5.88;;;3.05;;
59099;SDS011;44884;52.730;6.964;2024-03-23T05:39:47;5.50;;;3.53;;
59099;SDS011;44884;52.730;6.964;2024-03-23T05:42:15;5.68;;;3.60;;
59099;SDS011;44884;52.730;6.964;2024-03-23T05:44:42;3.65;;;3.25;;
59099;SDS011;44884;52.730;6.964;2024-03-23T05:47:08;5.25;;;3.22;;
59099;SDS011;44884;52.730;6.964;2024-03-23T05:49:34;4.32;;;3.03;;
59099;SDS011;44884;52.730;6.964;2024-03-23T05:52:00;7.32;;;4.35;;
59099;SDS011;44884;52.730;6.964;2024-03-23T05:54:28;12.07;;;3.70;;
59099;SDS011;44884;52.730;6.964;2024-03-23T05:56:55;5.63;;;3.22;;
59099;SDS011;44884;52.730;6.964;2024-03-23T05:59:21;5.13;;;3.03;;
59099;SDS011;44884;52.730;6.964;2024-03-23T06:01:47;6.88;;;3.63;;
59099;SDS011;44884;52.730;6.964;2024-03-23T06:04:14;5.75;;;2.88;;
59099;SDS011;44884;52.730;6.964;2024-03-23T06:06:40;6.15;;;3.10;;
59099;SDS011;44884;52.730;6.964;2024-03-23T06:09:06;4.75;;;3.35;;
59099;SDS011;44884;52.730;6.964;2024-03-23T06:11:32;6.10;;;2.70;;
59099;SDS011;44884;52.730;6.964;2024-03-23T06:13:58;6.15;;;2.85;;
59099;SDS011;44884;52.730;6.964;2024-03-23T06:16:24;7.10;;;2.85;;
59099;SDS011;44884;52.730;6.964;2024-03-23T06:18:50;7.10;;;3.15;;
59099;SDS011;44884;52.730;6.964;2024-03-23T06:21:16;8.77;;;3.58;;
59099;SDS011;44884;52.730;6.964;2024-03-23T06:23:42;4.55;;;3.28;;
59099;SDS011;44884;52.730;6.964;2024-03-23T06:26:13;4.05;;;2.53;;
59099;SDS011;44884;52.730;6.964;2024-03-23T06:28:39;5.18;;;3.10;;
59099;SDS011;44884;52.730;6.964;2024-03-23T06:31:08;4.43;;;2.90;;
59099;SDS011;44884;52.730;6.964;2024-03-23T06:33:35;4.43;;;2.78;;
59099;SDS011;44884;52.730;6.964;2024-03-23T06:36:01;6.22;;;3.53;;
59099;SDS011;44884;52.730;6.964;2024-03-23T06:38:28;7.10;;;3.63;;
59099;SDS011;44884;52.730;6.964;2024-03-23T06:40:54;4.40;;;2.90;;
59099;SDS011;44884;52.730;6.964;2024-03-23T06:43:20;9.57;;;3.55;;
59099;SDS011;44884;52.730;6.964;2024-03-23T06:45:52;6.38;;;3.67;;
59099;SDS011;44884;52.730;6.964;2024-03-23T06:48:18;9.68;;;3.75;;
59099;SDS011;44884;52.730;6.964;2024-03-23T06:50:44;9.32;;;3.28;;
59099;SDS011;44884;52.730;6.964;2024-03-23T06:53:11;10.82;;;3.92;;
59099;SDS011;44884;52.730;6.964;2024-03-23T06:55:37;6.10;;;3.55;;
59099;SDS011;44884;52.730;6.964;2024-03-23T06:58:04;6.97;;;3.53;;
59099;SDS011;44884;52.730;6.964;2024-03-23T07:00:30;8.13;;;3.28;;
59099;SDS011;44884;52.730;6.964;2024-03-23T07:02:57;8.27;;;3.35;;
59099;SDS011;44884;52.730;6.964;2024-03-23T07:05:23;7.55;;;3.70;;
59099;SDS011;44884;52.730;6.964;2024-03-23T07:07:49;6.95;;;3.45;;
59099;SDS011;44884;52.730;6.964;2024-03-23T07:10:15;5.40;;;3.05;;
59099;SDS011;44884;52.730;6.964;2024-03-23T07:12:41;10.48;;;3.83;;
59099;SDS011;44884;52.730;6.964;2024-03-23T07:15:07;7.55;;;3.28;;
59099;SDS011;44884;52.730;6.964;2024-03-23T07:17:33;10.70;;;3.63;;
59099;SDS011;44884;52.730;6.964;2024-03-23T07:20:00;5.15;;;2.80;;
59099;SDS011;44884;52.730;6.964;2024-03-23T07:22:29;3.70;;;3.03;;
59099;SDS011;44884;52.730;6.964;2024-03-23T07:24:55;6.97;;;3.25;;
59099;SDS011;44884;52.730;6.964;2024-03-23T07:27:21;4.28;;;2.80;;
59099;SDS011;44884;52.730;6.964;2024-03-23T07:29:48;6.20;;;2.92;;
59099;SDS011;44884;52.730;6.964;2024-03-23T07:32:14;4.20;;;2.95;;
59099;SDS011;44884;52.730;6.964;2024-03-23T07:34:41;7.88;;;3.53;;
59099;SDS011;44884;52.730;6.964;2024-03-23T07:37:09;10.20;;;4.18;;
59099;SDS011;44884;52.730;6.964;2024-03-23T07:39:35;5.45;;;3.17;;
59099;SDS011;44884;52.730;6.964;2024-03-23T07:42:01;6.40;;;3.28;;
59099;SDS011;44884;52.730;6.964;2024-03-23T07:44:27;4.75;;;2.90;;
59099;SDS011;44884;52.730;6.964;2024-03-23T07:46:53;5.55;;;3.00;;
59099;SDS011;44884;52.730;6.964;2024-03-23T07:49:19;6.90;;;3.13;;
59099;SDS011;44884;52.730;6.964;2024-03-23T07:51:45;4.55;;;2.67;;
59099;SDS011;44884;52.730;6.964;2024-03-23T07:54:11;8.23;;;3.33;;
59099;SDS011;44884;52.730;6.964;2024-03-23T07:56:37;6.97;;;3.20;;
59099;SDS011;44884;52.730;6.964;2024-03-23T07:59:03;6.97;;;3.38;;
59099;SDS011;44884;52.730;6.964;2024-03-23T08:01:29;4.35;;;2.38;;
59099;SDS011;44884;52.730;6.964;2024-03-23T08:03:56;3.90;;;2.75;;
59099;SDS011;44884;52.730;6.964;2024-03-23T08:06:22;12.27;;;3.63;;
59099;SDS011;44884;52.730;6.964;2024-03-23T08:08:49;3.10;;;2.20;;
59099;SDS011;44884;52.730;6.964;2024-03-23T08:11:16;8.10;;;3.38;;
59099;SDS011;44884;52.730;6.964;2024-03-23T08:13:42;9.18;;;3.00;;
59099;SDS011;44884;52.730;6.964;2024-03-23T08:16:10;4.57;;;2.92;;
59099;SDS011;44884;52.730;6.964;2024-03-23T08:18:39;4.30;;;2.65;;
59099;SDS011;44884;52.730;6.964;2024-03-23T08:21:05;7.20;;;3.35;;
59099;SDS011;44884;52.730;6.964;2024-03-23T08:23:32;10.35;;;2.95;;
59099;SDS011;44884;52.730;6.964;2024-03-23T08:25:59;5.85;;;3.30;;
59099;SDS011;44884;52.730;6.964;2024-03-23T08:28:26;5.50;;;3.00;;
59099;SDS011;44884;52.730;6.964;2024-03-23T08:30:52;5.78;;;2.25;;
59099;SDS011;44884;52.730;6.964;2024-03-23T08:33:19;6.93;;;2.35;;
59099;SDS011;44884;52.730;6.964;2024-03-23T08:35:54;5.05;;;2.72;;
59099;SDS011;44884;52.730;6.964;2024-03-23T08:38:21;6.10;;;3.00;;
59099;SDS011;44884;52.730;6.964;2024-03-23T08:40:47;7.13;;;3.53;;
59099;SDS011;44884;52.730;6.964;2024-03-23T08:43:13;5.25;;;3.28;;
59099;SDS011;44884;52.730;6.964;2024-03-23T08:45:39;4.70;;;2.47;;
59099;SDS011;44884;52.730;6.964;2024-03-23T08:48:05;4.57;;;2.78;;
59099;SDS011;44884;52.730;6.964;2024-03-23T08:50:31;4.78;;;2.92;;
59099;SDS011;44884;52.730;6.964;2024-03-23T08:52:57;3.80;;;2.55;;
59099;SDS011;44884;52.730;6.964;2024-03-23T08:55:23;4.10;;;2.45;;
59099;SDS011;44884;52.730;6.964;2024-03-23T08:57:49;4.60;;;2.25;;
59099;SDS011;44884;52.730;6.964;2024-03-23T09:00:15;4.85;;;2.90;;
59099;SDS011;44884;52.730;6.964;2024-03-23T09:02:42;4.05;;;3.03;;
59099;SDS011;44884;52.730;6.964;2024-03-23T09:05:08;6.60;;;2.80;;
59099;SDS011;44884;52.730;6.964;2024-03-23T09:07:34;3.95;;;2.70;;
59099;SDS011;44884;52.730;6.964;2024-03-23T09:10:00;4.55;;;2.60;;
59099;SDS011;44884;52.730;6.964;2024-03-23T09:12:26;4.38;;;3.10;;
59099;SDS011;44884;52.730;6.964;2024-03-23T09:14:52;5.05;;;2.97;;
59099;SDS011;44884;52.730;6.964;2024-03-23T09:17:18;7.45;;;2.95;;
59099;SDS011;44884;52.730;6.964;2024-03-23T09:19:44;3.33;;;2.63;;
59099;SDS011;44884;52.730;6.964;2024-03-23T09:22:10;6.95;;;2.78;;
59099;SDS011;44884;52.730;6.964;2024-03-23T09:24:36;2.63;;;2.20;;
59099;SDS011;44884;52.730;6.964;2024-03-23T09:27:04;4.95;;;2.60;;
59099;SDS011;44884;52.730;6.964;2024-03-23T09:29:30;4.30;;;2.38;;
59099;SDS011;44884;52.730;6.964;2024-03-23T09:31:56;8.43;;;2.20;;
59099;SDS011;44884;52.730;6.964;2024-03-23T09:34:22;7.63;;;3.17;;
59099;SDS011;44884;52.730;6.964;2024-03-23T09:36:51;4.28;;;2.35;;
59099;SDS011;44884;52.730;6.964;2024-03-23T09:39:17;4.07;;;2.20;;
59099;SDS011;44884;52.730;6.964;2024-03-23T09:41:43;4.85;;;2.47;;
59099;SDS011;44884;52.730;6.964;2024-03-23T09:44:09;3.40;;;1.80;;
59099;SDS011;44884;52.730;6.964;2024-03-23T09:46:35;5.18;;;2.92;;
59099;SDS011;44884;52.730;6.964;2024-03-23T09:49:03;3.13;;;1.98;;
59099;SDS011;44884;52.730;6.964;2024-03-23T09:51:30;3.28;;;2.08;;
59099;SDS011;44884;52.730;6.964;2024-03-23T09:53:56;5.95;;;2.47;;
59099;SDS011;44884;52.730;6.964;2024-03-23T09:56:22;4.38;;;2.58;;
59099;SDS011;44884;52.730;6.964;2024-03-23T09:58:49;4.28;;;2.20;;
59099;SDS011;44884;52.730;6.964;2024-03-23T10:01:15;6.32;;;2.80;;
59099;SDS011;44884;52.730;6.964;2024-03-23T10:03:47;7.53;;;2.58;;
59099;SDS011;44884;52.730;6.964;2024-03-23T10:06:13;7.28;;;2.15;;
59099;SDS011;44884;52.730;6.964;2024-03-23T10:08:39;5.88;;;2.20;;
59099;SDS011;44884;52.730;6.964;2024-03-23T10:11:22;10.05;;;3.13;;
59099;SDS011;44884;52.730;6.964;2024-03-23T10:13:50;5.20;;;2.30;;
59099;SDS011;44884;52.730;6.964;2024-03-23T10:16:20;10.48;;;2.13;;
59099;SDS011;44884;52.730;6.964;2024-03-23T10:18:47;4.38;;;1.88;;
59099;SDS011;44884;52.730;6.964;2024-03-23T10:21:13;10.02;;;2.88;;
59099;SDS011;44884;52.730;6.964;2024-03-23T10:23:41;10.15;;;2.75;;
59099;SDS011;44884;52.730;6.964;2024-03-23T10:31:17;5.93;;;2.38;;
59099;SDS011;44884;52.730;6.964;2024-03-23T10:33:44;4.45;;;2.00;;
59099;SDS011;44884;52.730;6.964;2024-03-23T10:36:11;3.75;;;2.03;;
59099;SDS011;44884;52.730;6.964;2024-03-23T10:38:37;4.53;;;2.30;;
59099;SDS011;44884;52.730;6.964;2024-03-23T10:41:03;3.50;;;2.00;;
59099;SDS011;44884;52.730;6.964;2024-03-23T10:43:30;10.20;;;2.70;;
59099;SDS011;44884;52.730;6.964;2024-03-23T10:45:58;9.25;;;2.17;;
59099;SDS011;44884;52.730;6.964;2024-03-23T10:48:24;5.63;;;2.28;;
59099;SDS011;44884;52.730;6.964;2024-03-23T10:50:50;6.95;;;2.40;;
59099;SDS011;44884;52.730;6.964;2024-03-23T10:53:16;7.18;;;1.85;;
59099;SDS011;44884;52.730;6.964;2024-03-23T10:55:43;4.70;;;2.28;;
59099;SDS011;44884;52.730;6.964;2024-03-23T10:58:09;6.60;;;2.25;;
59099;SDS011;44884;52.730;6.964;2024-03-23T11:00:37;4.20;;;2.10;;
59099;SDS011;44884;52.730;6.964;2024-03-23T11:05:48;3.70;;;1.77;;
59099;SDS011;44884;52.730;6.964;2024-03-23T11:08:29;3.92;;;2.20;;
59099;SDS011;44884;52.730;6.964;2024-03-23T11:11:11;9.18;;;1.98;;
59099;SDS011;44884;52.730;6.964;2024-03-23T11:13:38;6.90;;;1.90;;
59099;SDS011;44884;52.730;6.964;2024-03-23T11:16:23;4.00;;;1.95;;
59099;SDS011;44884;52.730;6.964;2024-03-23T11:18:50;3.55;;;1.90;;
59099;SDS011;44884;52.730;6.964;2024-03-23T11:24:13;6.47;;;2.20;;
59099;SDS011;44884;52.730;6.964;2024-03-23T11:26:39;4.05;;;2.00;;
59099;SDS011;44884;52.730;6.964;2024-03-23T11:29:09;7.80;;;2.20;;
59099;SDS011;44884;52.730;6.964;2024-03-23T11:31:36;2.63;;;2.08;;
59099;SDS011;44884;52.730;6.964;2024-03-23T11:34:02;8.63;;;2.92;;
59099;SDS011;44884;52.730;6.964;2024-03-23T11:36:28;3.88;;;2.15;;
59099;SDS011;44884;52.730;6.964;2024-03-23T11:38:54;2.80;;;1.83;;
59099;SDS011;44884;52.730;6.964;2024-03-23T11:41:20;2.67;;;1.75;;
59099;SDS011;44884;52.730;6.964;2024-03-23T11:43:46;5.43;;;2.28;;
59099;SDS011;44884;52.730;6.964;2024-03-23T11:46:21;3.92;;;1.73;;
59099;SDS011;44884;52.730;6.964;2024-03-23T11:48:50;15.43;;;2.58;;
59099;SDS011;44884;52.730;6.964;2024-03-23T11:51:16;4.85;;;2.20;;
59099;SDS011;44884;52.730;6.964;2024-03-23T11:53:43;8.40;;;2.17;;
59099;SDS011;44884;52.730;6.964;2024-03-23T11:56:09;4.13;;;2.30;;
59099;SDS011;44884;52.730;6.964;2024-03-23T11:58:35;7.20;;;1.98;;
59099;SDS011;44884;52.730;6.964;2024-03-23T12:01:01;4.20;;;2.28;;
59099;SDS011;44884;52.730;6.964;2024-03-23T12:03:28;6.07;;;1.92;;
59099;SDS011;44884;52.730;6.964;2024-03-23T12:05:58;5.65;;;2.25;;
59099;SDS011;44884;52.730;6.964;2024-03-23T12:10:51;2.53;;;1.80;;
59099;SDS011;44884;52.730;6.964;2024-03-23T12:13:18;3.85;;;1.88;;
59099;SDS011;44884;52.730;6.964;2024-03-23T12:15:45;3.47;;;2.25;;
59099;SDS011;44884;52.730;6.964;2024-03-23T12:18:11;3.20;;;1.65;;
59099;SDS011;44884;52.730;6.964;2024-03-23T12:20:38;3.55;;;1.75;;
59099;SDS011;44884;52.730;6.964;2024-03-23T12:23:07;4.28;;;2.00;;
59099;SDS011;44884;52.730;6.964;2024-03-23T12:25:34;3.05;;;1.65;;
59099;SDS011;44884;52.730;6.964;2024-03-23T12:28:00;5.72;;;1.67;;
59099;SDS011;44884;52.730;6.964;2024-03-23T12:30:26;6.63;;;1.52;;
59099;SDS011;44884;52.730;6.964;2024-03-23T12:32:52;3.65;;;1.92;;
59099;SDS011;44884;52.730;6.964;2024-03-23T12:35:19;2.25;;;1.60;;
59099;SDS011;44884;52.730;6.964;2024-03-23T12:37:45;3.70;;;1.95;;
59099;SDS011;44884;52.730;6.964;2024-03-23T12:40:11;5.50;;;1.80;;
59099;SDS011;44884;52.730;6.964;2024-03-23T12:42:37;2.88;;;1.80;;
59099;SDS011;44884;52.730;6.964;2024-03-23T12:45:03;3.40;;;1.83;;
59099;SDS011;44884;52.730;6.964;2024-03-23T12:47:30;4.45;;;1.92;;
59099;SDS011;44884;52.730;6.964;2024-03-23T12:49:56;4.57;;;1.60;;
59099;SDS011;44884;52.730;6.964;2024-03-23T12:52:22;4.28;;;1.58;;
59099;SDS011;44884;52.730;6.964;2024-03-23T12:54:53;2.42;;;1.70;;
59099;SDS011;44884;52.730;6.964;2024-03-23T12:57:21;2.35;;;1.70;;
59099;SDS011;44884;52.730;6.964;2024-03-23T12:59:47;5.97;;;1.42;;
59099;SDS011;44884;52.730;6.964;2024-03-23T13:02:15;5.63;;;1.98;;
59099;SDS011;44884;52.730;6.964;2024-03-23T13:04:41;7.35;;;1.85;;
59099;SDS011;44884;52.730;6.964;2024-03-23T13:07:08;5.00;;;2.30;;
59099;SDS011;44884;52.730;6.964;2024-03-23T13:09:34;2.72;;;1.88;;
59099;SDS011;44884;52.730;6.964;2024-03-23T13:12:00;7.65;;;2.38;;
59099;SDS011;44884;52.730;6.964;2024-03-23T13:14:27;8.00;;;2.20;;
59099;SDS011;44884;52.730;6.964;2024-03-23T13:16:53;4.32;;;1.67;;
59099;SDS011;44884;52.730;6.964;2024-03-23T13:19:19;6.63;;;1.70;;
59099;SDS011;44884;52.730;6.964;2024-03-23T13:21:45;9.40;;;1.75;;
59099;SDS011;44884;52.730;6.964;2024-03-23T13:24:11;3.88;;;1.20;;
59099;SDS011;44884;52.730;6.964;2024-03-23T13:26:37;2.88;;;1.40;;
59099;SDS011;44884;52.730;6.964;2024-03-23T13:29:03;4.68;;;1.30;;
59099;SDS011;44884;52.730;6.964;2024-03-23T13:31:29;2.33;;;1.52;;
59099;SDS011;44884;52.730;6.964;2024-03-23T13:33:55;2.90;;;1.70;;
59099;SDS011;44884;52.730;6.964;2024-03-23T13:36:21;3.20;;;1.52;;
59099;SDS011;44884;52.730;6.964;2024-03-23T13:38:47;3.88;;;1.45;;
59099;SDS011;44884;52.730;6.964;2024-03-23T13:41:13;4.38;;;2.00;;
59099;SDS011;44884;52.730;6.964;2024-03-23T13:43:39;3.20;;;1.80;;
59099;SDS011;44884;52.730;6.964;2024-03-23T13:46:06;3.65;;;1.38;;
59099;SDS011;44884;52.730;6.964;2024-03-23T13:48:32;1.88;;;1.30;;
59099;SDS011;44884;52.730;6.964;2024-03-23T13:50:59;2.28;;;1.55;;
59099;SDS011;44884;52.730;6.964;2024-03-23T13:53:25;1.75;;;1.38;;
59099;SDS011;44884;52.730;6.964;2024-03-23T13:55:51;4.30;;;1.75;;
59099;SDS011;44884;52.730;6.964;2024-03-23T13:58:18;3.75;;;1.75;;
59099;SDS011;44884;52.730;6.964;2024-03-23T14:00:44;6.40;;;1.73;;
59099;SDS011;44884;52.730;6.964;2024-03-23T14:03:10;3.03;;;1.50;;
59099;SDS011;44884;52.730;6.964;2024-03-23T14:05:37;6.25;;;1.88;;
59099;SDS011;44884;52.730;6.964;2024-03-23T14:10:31;3.17;;;2.13;;
59099;SDS011;44884;52.730;6.964;2024-03-23T14:12:58;6.22;;;2.08;;
59099;SDS011;44884;52.730;6.964;2024-03-23T14:15:27;2.28;;;1.40;;
59099;SDS011;44884;52.730;6.964;2024-03-23T14:17:53;2.33;;;1.85;;
59099;SDS011;44884;52.730;6.964;2024-03-23T14:20:22;3.35;;;1.73;;
59099;SDS011;44884;52.730;6.964;2024-03-23T14:22:51;3.00;;;1.63;;
59099;SDS011;44884;52.730;6.964;2024-03-23T14:25:17;6.07;;;1.80;;
59099;SDS011;44884;52.730;6.964;2024-03-23T14:27:44;3.55;;;1.50;;
59099;SDS011;44884;52.730;6.964;2024-03-23T14:30:10;2.35;;;1.80;;
59099;SDS011;44884;52.730;6.964;2024-03-23T14:32:37;4.07;;;1.60;;
59099;SDS011;44884;52.730;6.964;2024-03-23T14:35:03;4.78;;;2.35;;
59099;SDS011;44884;52.730;6.964;2024-03-23T14:37:30;5.00;;;2.20;;
59099;SDS011;44884;52.730;6.964;2024-03-23T14:39:56;3.38;;;1.77;;
59099;SDS011;44884;52.730;6.964;2024-03-23T14:42:23;6.90;;;2.53;;
59099;SDS011;44884;52.730;6.964;2024-03-23T14:44:49;3.83;;;1.65;;
59099;SDS011;44884;52.730;6.964;2024-03-23T14:47:16;2.58;;;1.23;;
59099;SDS011;44884;52.730;6.964;2024-03-23T14:49:42;3.45;;;1.80;;
59099;SDS011;44884;52.730;6.964;2024-03-23T14:52:12;2.90;;;1.67;;
59099;SDS011;44884;52.730;6.964;2024-03-23T14:54:38;4.57;;;2.15;;
59099;SDS011;44884;52.730;6.964;2024-03-23T14:57:04;2.50;;;1.35;;
59099;SDS011;44884;52.730;6.964;2024-03-23T14:59:32;5.72;;;1.65;;
59099;SDS011;44884;52.730;6.964;2024-03-23T15:01:58;3.15;;;1.98;;
59099;SDS011;44884;52.730;6.964;2024-03-23T15:04:25;5.28;;;1.75;;
59099;SDS011;44884;52.730;6.964;2024-03-23T15:06:51;1.98;;;1.50;;
59099;SDS011;44884;52.730;6.964;2024-03-23T15:09:17;4.78;;;1.50;;
59099;SDS011;44884;52.730;6.964;2024-03-23T15:11:43;3.70;;;2.17;;
59099;SDS011;44884;52.730;6.964;2024-03-23T15:14:09;5.88;;;2.50;;
59099;SDS011;44884;52.730;6.964;2024-03-23T15:16:36;4.32;;;2.25;;
59099;SDS011;44884;52.730;6.964;2024-03-23T15:19:02;5.72;;;2.10;;
59099;SDS011;44884;52.730;6.964;2024-03-23T15:21:31;3.72;;;1.77;;
59099;SDS011;44884;52.730;6.964;2024-03-23T15:23:57;4.13;;;2.15;;
59099;SDS011;44884;52.730;6.964;2024-03-23T15:26:23;10.13;;;2.33;;
59099;SDS011;44884;52.730;6.964;2024-03-23T15:28:49;6.03;;;2.15;;
59099;SDS011;44884;52.730;6.964;2024-03-23T15:31:21;2.67;;;1.88;;
59099;SDS011;44884;52.730;6.964;2024-03-23T15:33:47;2.38;;;1.50;;
59099;SDS011;44884;52.730;6.964;2024-03-23T15:36:13;2.25;;;1.42;;
59099;SDS011;44884;52.730;6.964;2024-03-23T15:38:39;4.70;;;2.40;;
59099;SDS011;44884;52.730;6.964;2024-03-23T15:41:05;3.83;;;1.80;;
59099;SDS011;44884;52.730;6.964;2024-03-23T15:43:31;4.88;;;2.30;;
59099;SDS011;44884;52.730;6.964;2024-03-23T15:45:58;4.10;;;1.92;;
59099;SDS011;44884;52.730;6.964;2024-03-23T15:48:27;3.90;;;1.60;;
59099;SDS011;44884;52.730;6.964;2024-03-23T15:50:53;5.60;;;2.17;;
59099;SDS011;44884;52.730;6.964;2024-03-23T15:53:20;3.05;;;1.73;;